Terminal Aerodrome Forecast
Issued by NWS

Home | Current Version | Previous Version | Text Only | Print | Product List | Glossary On
Versions: 1 2 3 4 5 6 7 8 9 10 11 12 13 14 15 16 17 18 19 20 21 22 23 24 25 26
000
FTPQ31 PGUM 271100
TAFPQ
TAF

PTKK 271120Z 2712/2812 10010KT 6SM -RA SCT014 SCT050 BKN120
      TEMPO 2712/2715 13011KT 3SM TSRA SCT012CB BKN030
     FM272000 08012KT P6SM VCSH SCT014 BKN110=

USA.gov is the U.S. government's official web portal to all federal, state and local government web resources and services.